sensor_id;sensor_type;location;lat;lon;timestamp;pressure;altitude;pressure_sealevel;temperature;humidity
58245;BME280;44550;43.864;25.986;2024-01-30T00:01:27;103687.75;;;3.20;100.00
58245;BME280;44550;43.864;25.986;2024-01-30T00:05:28;103691.66;;;3.25;100.00
58245;BME280;44550;43.864;25.986;2024-01-30T00:09:28;103684.53;;;3.23;100.00
58245;BME280;44550;43.864;25.986;2024-01-30T00:13:30;103678.56;;;3.34;100.00
58245;BME280;44550;43.864;25.986;2024-01-30T00:17:31;103691.34;;;3.53;100.00
58245;BME280;44550;43.864;25.986;2024-01-30T00:21:31;103689.69;;;3.43;100.00
58245;BME280;44550;43.864;25.986;2024-01-30T00:25:39;103685.03;;;3.39;100.00
58245;BME280;44550;43.864;25.986;2024-01-30T00:29:44;103682.09;;;3.35;100.00
58245;BME280;44550;43.864;25.986;2024-01-30T00:33:44;103689.72;;;3.13;100.00
58245;BME280;44550;43.864;25.986;2024-01-30T00:37:45;103686.72;;;2.98;100.00
58245;BME280;44550;43.864;25.986;2024-01-30T00:41:46;103691.66;;;3.05;100.00
58245;BME280;44550;43.864;25.986;2024-01-30T00:45:51;103685.44;;;3.03;100.00
58245;BME280;44550;43.864;25.986;2024-01-30T00:50:05;103646.78;;;2.74;100.00
58245;BME280;44550;43.864;25.986;2024-01-30T00:54:09;103680.00;;;3.10;100.00
58245;BME280;44550;43.864;25.986;2024-01-30T00:58:25;103688.91;;;3.24;100.00
58245;BME280;44550;43.864;25.986;2024-01-30T01:02:29;103684.78;;;3.36;100.00
58245;BME280;44550;43.864;25.986;2024-01-30T01:06:30;103673.00;;;3.50;100.00
58245;BME280;44550;43.864;25.986;2024-01-30T01:10:32;103673.25;;;3.43;100.00
58245;BME280;44550;43.864;25.986;2024-01-30T01:14:33;103677.81;;;3.35;100.00
58245;BME280;44550;43.864;25.986;2024-01-30T01:18:36;103667.84;;;3.29;100.00
58245;BME280;44550;43.864;25.986;2024-01-30T01:22:38;103668.88;;;3.42;100.00
58245;BME280;44550;43.864;25.986;2024-01-30T01:26:40;103662.91;;;3.43;100.00
58245;BME280;44550;43.864;25.986;2024-01-30T01:30:40;103670.03;;;3.45;100.00
58245;BME280;44550;43.864;25.986;2024-01-30T01:34:44;103669.53;;;3.39;100.00
58245;BME280;44550;43.864;25.986;2024-01-30T01:38:48;103669.53;;;3.19;100.00
58245;BME280;44550;43.864;25.986;2024-01-30T01:42:50;103668.22;;;2.73;100.00
58245;BME280;44550;43.864;25.986;2024-01-30T01:46:55;103636.78;;;2.38;100.00
58245;BME280;44550;43.864;25.986;2024-01-30T01:50:59;103670.53;;;2.59;100.00
58245;BME280;44550;43.864;25.986;2024-01-30T01:55:01;103675.41;;;2.46;100.00
58245;BME280;44550;43.864;25.986;2024-01-30T01:59:17;103596.84;;;2.14;100.00
58245;BME280;44550;43.864;25.986;2024-01-30T02:03:19;103681.19;;;2.33;100.00
58245;BME280;44550;43.864;25.986;2024-01-30T02:07:23;103678.41;;;2.22;100.00
58245;BME280;44550;43.864;25.986;2024-01-30T02:11:28;103678.59;;;2.04;100.00
58245;BME280;44550;43.864;25.986;2024-01-30T02:15:30;103680.16;;;2.02;100.00
58245;BME280;44550;43.864;25.986;2024-01-30T02:19:31;103570.00;;;1.43;100.00
58245;BME280;44550;43.864;25.986;2024-01-30T02:23:35;103677.47;;;2.11;100.00
58245;BME280;44550;43.864;25.986;2024-01-30T02:27:40;103677.59;;;2.02;100.00
58245;BME280;44550;43.864;25.986;2024-01-30T02:31:46;103674.66;;;2.18;100.00
58245;BME280;44550;43.864;25.986;2024-01-30T02:35:47;103673.78;;;2.28;100.00
58245;BME280;44550;43.864;25.986;2024-01-30T02:39:50;103666.91;;;2.18;100.00
58245;BME280;44550;43.864;25.986;2024-01-30T02:43:51;103666.81;;;2.27;100.00
58245;BME280;44550;43.864;25.986;2024-01-30T02:47:52;103663.63;;;2.29;100.00
58245;BME280;44550;43.864;25.986;2024-01-30T02:51:57;103641.25;;;2.20;100.00
58245;BME280;44550;43.864;25.986;2024-01-30T02:56:00;103668.38;;;2.35;100.00
58245;BME280;44550;43.864;25.986;2024-01-30T03:00:08;103656.31;;;2.54;100.00
58245;BME280;44550;43.864;25.986;2024-01-30T03:04:09;103653.72;;;2.54;100.00
58245;BME280;44550;43.864;25.986;2024-01-30T03:08:09;103616.31;;;2.10;100.00
58245;BME280;44550;43.864;25.986;2024-01-30T03:12:13;103653.81;;;2.25;100.00
58245;BME280;44550;43.864;25.986;2024-01-30T03:16:14;103654.94;;;2.19;100.00
58245;BME280;44550;43.864;25.986;2024-01-30T03:20:18;103648.97;;;2.09;100.00
58245;BME280;44550;43.864;25.986;2024-01-30T03:24:19;103649.63;;;2.17;100.00
58245;BME280;44550;43.864;25.986;2024-01-30T03:28:22;103646.94;;;2.16;100.00
58245;BME280;44550;43.864;25.986;2024-01-30T03:32:22;103642.47;;;2.04;100.00
58245;BME280;44550;43.864;25.986;2024-01-30T03:36:23;103650.06;;;1.93;100.00
58245;BME280;44550;43.864;25.986;2024-01-30T03:40:24;103650.97;;;1.93;100.00
58245;BME280;44550;43.864;25.986;2024-01-30T03:44:27;103637.44;;;1.96;100.00
58245;BME280;44550;43.864;25.986;2024-01-30T03:48:27;103620.34;;;1.87;100.00
58245;BME280;44550;43.864;25.986;2024-01-30T03:52:28;103635.75;;;1.96;100.00
58245;BME280;44550;43.864;25.986;2024-01-30T03:56:31;103629.72;;;2.06;100.00
58245;BME280;44550;43.864;25.986;2024-01-30T04:00:34;103626.91;;;2.13;100.00
58245;BME280;44550;43.864;25.986;2024-01-30T04:04:34;103633.00;;;2.24;100.00
58245;BME280;44550;43.864;25.986;2024-01-30T04:08:36;103632.06;;;2.13;100.00
58245;BME280;44550;43.864;25.986;2024-01-30T04:12:36;103637.03;;;2.01;100.00
58245;BME280;44550;43.864;25.986;2024-01-30T04:16:39;103640.94;;;2.06;100.00
58245;BME280;44550;43.864;25.986;2024-01-30T04:20:40;103650.91;;;2.12;100.00
58245;BME280;44550;43.864;25.986;2024-01-30T04:24:40;103652.19;;;2.07;100.00
58245;BME280;44550;43.864;25.986;2024-01-30T04:28:41;103646.81;;;1.95;100.00
58245;BME280;44550;43.864;25.986;2024-01-30T04:32:44;103647.00;;;1.78;100.00
58245;BME280;44550;43.864;25.986;2024-01-30T04:36:45;103586.44;;;1.35;100.00
58245;BME280;44550;43.864;25.986;2024-01-30T04:40:45;103653.88;;;1.87;100.00
58245;BME280;44550;43.864;25.986;2024-01-30T04:44:46;103656.19;;;1.84;100.00
58245;BME280;44550;43.864;25.986;2024-01-30T04:48:49;103617.00;;;1.59;100.00
58245;BME280;44550;43.864;25.986;2024-01-30T04:52:50;103652.31;;;1.79;100.00
58245;BME280;44550;43.864;25.986;2024-01-30T04:56:50;103657.25;;;1.86;100.00
58245;BME280;44550;43.864;25.986;2024-01-30T05:00:51;103609.91;;;1.57;100.00
58245;BME280;44550;43.864;25.986;2024-01-30T05:04:54;103649.81;;;1.71;100.00
58245;BME280;44550;43.864;25.986;2024-01-30T05:08:56;103652.94;;;1.77;100.00
58245;BME280;44550;43.864;25.986;2024-01-30T05:12:56;103655.88;;;1.71;100.00
58245;BME280;44550;43.864;25.986;2024-01-30T05:16:57;103656.03;;;1.73;100.00
58245;BME280;44550;43.864;25.986;2024-01-30T05:21:03;103662.50;;;1.78;100.00
58245;BME280;44550;43.864;25.986;2024-01-30T05:25:05;103661.59;;;1.77;100.00
58245;BME280;44550;43.864;25.986;2024-01-30T05:29:06;103626.34;;;1.49;100.00
58245;BME280;44550;43.864;25.986;2024-01-30T05:33:06;103663.06;;;1.65;100.00
58245;BME280;44550;43.864;25.986;2024-01-30T05:37:09;103664.84;;;1.85;100.00
58245;BME280;44550;43.864;25.986;2024-01-30T05:41:12;103581.34;;;1.45;100.00
58245;BME280;44550;43.864;25.986;2024-01-30T05:45:13;103654.56;;;1.95;100.00
58245;BME280;44550;43.864;25.986;2024-01-30T05:49:14;103648.28;;;2.02;100.00
58245;BME280;44550;43.864;25.986;2024-01-30T05:53:17;103670.19;;;2.26;100.00
58245;BME280;44550;43.864;25.986;2024-01-30T05:57:17;103676.88;;;2.24;100.00
58245;BME280;44550;43.864;25.986;2024-01-30T06:01:17;103681.38;;;2.16;100.00
58245;BME280;44550;43.864;25.986;2024-01-30T06:05:18;103686.59;;;2.26;100.00
58245;BME280;44550;43.864;25.986;2024-01-30T06:09:21;103676.88;;;2.24;100.00
58245;BME280;44550;43.864;25.986;2024-01-30T06:13:21;103681.41;;;1.97;100.00
58245;BME280;44550;43.864;25.986;2024-01-30T06:17:24;103681.66;;;1.90;100.00
58245;BME280;44550;43.864;25.986;2024-01-30T06:21:24;103666.91;;;1.79;100.00
58245;BME280;44550;43.864;25.986;2024-01-30T06:25:29;103686.59;;;1.97;100.00
58245;BME280;44550;43.864;25.986;2024-01-30T06:29:30;103696.84;;;2.06;100.00
58245;BME280;44550;43.864;25.986;2024-01-30T06:33:30;103652.91;;;1.96;100.00
58245;BME280;44550;43.864;25.986;2024-01-30T06:37:33;103704.88;;;2.19;100.00
58245;BME280;44550;43.864;25.986;2024-01-30T06:41:36;103699.56;;;2.47;100.00
58245;BME280;44550;43.864;25.986;2024-01-30T06:45:36;103694.47;;;2.98;100.00
58245;BME280;44550;43.864;25.986;2024-01-30T06:49:37;103680.66;;;3.38;98.28
58245;BME280;44550;43.864;25.986;2024-01-30T06:53:40;103686.84;;;3.93;94.33
58245;BME280;44550;43.864;25.986;2024-01-30T06:57:46;103685.72;;;4.43;89.86
58245;BME280;44550;43.864;25.986;2024-01-30T07:01:48;103701.03;;;4.62;88.81
58245;BME280;44550;43.864;25.986;2024-01-30T07:05:53;103708.41;;;5.02;87.36
58245;BME280;44550;43.864;25.986;2024-01-30T07:09:57;103704.38;;;5.74;82.23
58245;BME280;44550;43.864;25.986;2024-01-30T07:14:03;103703.72;;;5.77;79.31
58245;BME280;44550;43.864;25.986;2024-01-30T07:18:05;103617.59;;;5.24;79.31
58245;BME280;44550;43.864;25.986;2024-01-30T07:22:04;103711.16;;;5.15;80.84
58245;BME280;44550;43.864;25.986;2024-01-30T07:26:08;103718.78;;;5.35;80.34
58245;BME280;44550;43.864;25.986;2024-01-30T07:30:16;103715.75;;;5.41;78.85
58245;BME280;44550;43.864;25.986;2024-01-30T07:34:21;103708.44;;;5.59;78.33
58245;BME280;44550;43.864;25.986;2024-01-30T07:38:37;103703.59;;;5.63;77.73
58245;BME280;44550;43.864;25.986;2024-01-30T07:42:45;103687.44;;;5.56;76.65
58245;BME280;44550;43.864;25.986;2024-01-30T07:47:01;103692.34;;;5.29;79.20
58245;BME280;44550;43.864;25.986;2024-01-30T07:51:32;103709.00;;;5.43;76.12
58245;BME280;44550;43.864;25.986;2024-01-30T07:55:39;103710.50;;;4.62;80.52
58245;BME280;44550;43.864;25.986;2024-01-30T07:59:55;103710.31;;;4.48;82.41
58245;BME280;44550;43.864;25.986;2024-01-30T08:04:12;103708.81;;;4.08;85.22
58245;BME280;44550;43.864;25.986;2024-01-30T08:08:23;103701.50;;;4.24;85.21
58245;BME280;44550;43.864;25.986;2024-01-30T08:12:25;103708.69;;;4.39;85.63
58245;BME280;44550;43.864;25.986;2024-01-30T08:16:38;103704.41;;;4.61;83.68
58245;BME280;44550;43.864;25.986;2024-01-30T08:20:48;103705.44;;;4.63;83.33
58245;BME280;44550;43.864;25.986;2024-01-30T08:25:04;103691.44;;;4.39;84.97
58245;BME280;44550;43.864;25.986;2024-01-30T08:29:07;103703.16;;;5.12;82.96
58245;BME280;44550;43.864;25.986;2024-01-30T08:33:11;103712.84;;;5.60;80.45
58245;BME280;44550;43.864;25.986;2024-01-30T08:37:15;103691.53;;;5.64;78.56
58245;BME280;44550;43.864;25.986;2024-01-30T08:41:28;103704.94;;;5.58;78.40
58245;BME280;44550;43.864;25.986;2024-01-30T08:45:37;103711.88;;;5.36;80.00
58245;BME280;44550;43.864;25.986;2024-01-30T08:49:44;103654.53;;;4.98;80.46
58245;BME280;44550;43.864;25.986;2024-01-30T08:53:55;103660.06;;;4.68;80.85
58245;BME280;44550;43.864;25.986;2024-01-30T08:58:02;103710.06;;;4.89;83.51
58245;BME280;44550;43.864;25.986;2024-01-30T09:02:16;103690.97;;;5.11;82.79
58245;BME280;44550;43.864;25.986;2024-01-30T09:06:34;103682.00;;;5.41;79.90
58245;BME280;44550;43.864;25.986;2024-01-30T09:10:45;103702.59;;;5.16;80.66
58245;BME280;44550;43.864;25.986;2024-01-30T09:14:46;103695.34;;;5.69;79.73
58245;BME280;44550;43.864;25.986;2024-01-30T09:18:47;103694.59;;;5.94;78.72
58245;BME280;44550;43.864;25.986;2024-01-30T09:22:50;103680.94;;;5.96;78.08
58245;BME280;44550;43.864;25.986;2024-01-30T09:26:59;103649.75;;;5.61;77.62
58245;BME280;44550;43.864;25.986;2024-01-30T09:31:03;103686.19;;;5.62;79.65
58245;BME280;44550;43.864;25.986;2024-01-30T09:35:03;103685.16;;;6.31;77.28
58245;BME280;44550;43.864;25.986;2024-01-30T09:39:05;103674.84;;;6.56;73.67
58245;BME280;44550;43.864;25.986;2024-01-30T09:43:07;103677.53;;;6.57;72.90
58245;BME280;44550;43.864;25.986;2024-01-30T09:47:13;103613.97;;;5.80;75.44
58245;BME280;44550;43.864;25.986;2024-01-30T09:51:19;103663.97;;;6.13;76.07
58245;BME280;44550;43.864;25.986;2024-01-30T09:55:21;103663.16;;;6.26;73.14
58245;BME280;44550;43.864;25.986;2024-01-30T09:59:27;103668.63;;;5.70;76.58
58245;BME280;44550;43.864;25.986;2024-01-30T10:03:28;103635.66;;;5.34;77.96
58245;BME280;44550;43.864;25.986;2024-01-30T10:07:29;103666.13;;;5.72;77.22
58245;BME280;44550;43.864;25.986;2024-01-30T10:11:30;103661.59;;;5.81;77.28
58245;BME280;44550;43.864;25.986;2024-01-30T10:15:32;103655.16;;;5.99;75.39
58245;BME280;44550;43.864;25.986;2024-01-30T10:19:34;103650.19;;;5.91;74.12
58245;BME280;44550;43.864;25.986;2024-01-30T10:23:39;103646.47;;;5.99;74.93
58245;BME280;44550;43.864;25.986;2024-01-30T10:27:43;103593.31;;;5.58;75.49
58245;BME280;44550;43.864;25.986;2024-01-30T10:32:00;103638.47;;;5.72;76.44
58245;BME280;44550;43.864;25.986;2024-01-30T10:36:02;103638.78;;;5.88;75.81
58245;BME280;44550;43.864;25.986;2024-01-30T10:40:03;103634.16;;;5.84;73.29
58245;BME280;44550;43.864;25.986;2024-01-30T10:44:09;103611.94;;;5.64;73.81
58245;BME280;44550;43.864;25.986;2024-01-30T10:48:13;103625.69;;;5.99;74.57
58245;BME280;44550;43.864;25.986;2024-01-30T10:52:23;103618.13;;;6.02;72.29
58245;BME280;44550;43.864;25.986;2024-01-30T10:56:32;103613.75;;;6.38;69.93
58245;BME280;44550;43.864;25.986;2024-01-30T11:00:35;103608.13;;;6.56;68.62
58245;BME280;44550;43.864;25.986;2024-01-30T11:04:40;103594.78;;;7.02;66.99
58245;BME280;44550;43.864;25.986;2024-01-30T11:08:45;103594.22;;;6.94;65.46
58245;BME280;44550;43.864;25.986;2024-01-30T11:12:50;103580.06;;;7.02;61.78
58245;BME280;44550;43.864;25.986;2024-01-30T11:16:57;103574.41;;;6.83;61.50
58245;BME280;44550;43.864;25.986;2024-01-30T11:21:01;103579.16;;;6.64;63.52
58245;BME280;44550;43.864;25.986;2024-01-30T11:25:03;103579.78;;;6.48;63.53
58245;BME280;44550;43.864;25.986;2024-01-30T11:29:07;103584.94;;;6.34;65.02
58245;BME280;44550;43.864;25.986;2024-01-30T11:33:11;103586.25;;;6.41;66.77
58245;BME280;44550;43.864;25.986;2024-01-30T11:37:20;103581.06;;;6.16;66.88
58245;BME280;44550;43.864;25.986;2024-01-30T11:41:28;103568.19;;;6.06;69.43
58245;BME280;44550;43.864;25.986;2024-01-30T11:45:31;103551.72;;;6.05;67.13
58245;BME280;44550;43.864;25.986;2024-01-30T11:49:31;103509.69;;;5.62;68.72
58245;BME280;44550;43.864;25.986;2024-01-30T11:53:35;103555.13;;;6.04;65.36
58245;BME280;44550;43.864;25.986;2024-01-30T11:57:51;103565.13;;;6.11;63.33
58245;BME280;44550;43.864;25.986;2024-01-30T12:01:59;103565.19;;;5.88;64.96
58245;BME280;44550;43.864;25.986;2024-01-30T12:06:03;103509.69;;;5.62;64.53
58245;BME280;44550;43.864;25.986;2024-01-30T12:10:09;103545.31;;;6.00;64.41
58245;BME280;44550;43.864;25.986;2024-01-30T12:14:12;103545.59;;;6.17;61.61
58245;BME280;44550;43.864;25.986;2024-01-30T12:18:12;103537.22;;;6.21;61.61
58245;BME280;44550;43.864;25.986;2024-01-30T12:22:13;103533.56;;;6.30;60.88
58245;BME280;44550;43.864;25.986;2024-01-30T12:26:16;103523.41;;;6.47;58.62
58245;BME280;44550;43.864;25.986;2024-01-30T12:30:28;103524.44;;;6.62;59.56
58245;BME280;44550;43.864;25.986;2024-01-30T12:34:32;103520.97;;;6.75;58.56
58245;BME280;44550;43.864;25.986;2024-01-30T12:38:52;103524.88;;;6.81;57.30
58245;BME280;44550;43.864;25.986;2024-01-30T12:42:57;103516.78;;;6.77;57.13
58245;BME280;44550;43.864;25.986;2024-01-30T12:47:02;103515.69;;;6.73;56.27
58245;BME280;44550;43.864;25.986;2024-01-30T12:51:03;103512.69;;;6.80;56.22
58245;BME280;44550;43.864;25.986;2024-01-30T12:55:07;103515.75;;;6.75;55.37
58245;BME280;44550;43.864;25.986;2024-01-30T12:59:12;103513.88;;;6.72;56.48
58245;BME280;44550;43.864;25.986;2024-01-30T13:03:15;103477.97;;;6.67;56.07
58245;BME280;44550;43.864;25.986;2024-01-30T13:07:16;103506.25;;;6.75;55.96
58245;BME280;44550;43.864;25.986;2024-01-30T13:11:18;103491.00;;;6.42;58.45
58245;BME280;44550;43.864;25.986;2024-01-30T13:15:21;103505.66;;;6.53;57.96
58245;BME280;44550;43.864;25.986;2024-01-30T13:19:22;103502.53;;;6.58;57.03
58245;BME280;44550;43.864;25.986;2024-01-30T13:23:25;103463.63;;;6.47;55.37
58245;BME280;44550;43.864;25.986;2024-01-30T13:27:25;103503.72;;;6.50;57.49
58245;BME280;44550;43.864;25.986;2024-01-30T13:31:33;103498.88;;;6.30;56.23
58245;BME280;44550;43.864;25.986;2024-01-30T13:35:34;103497.72;;;6.13;56.84
58245;BME280;44550;43.864;25.986;2024-01-30T13:39:34;103497.44;;;6.22;56.95
58245;BME280;44550;43.864;25.986;2024-01-30T13:43:37;103492.69;;;6.41;57.48
58245;BME280;44550;43.864;25.986;2024-01-30T13:47:39;103484.81;;;6.40;58.98
58245;BME280;44550;43.864;25.986;2024-01-30T13:51:40;103484.91;;;6.41;60.28
58245;BME280;44550;43.864;25.986;2024-01-30T13:55:40;103486.13;;;6.46;59.89
58245;BME280;44550;43.864;25.986;2024-01-30T13:59:40;103476.53;;;6.58;60.25
58245;BME280;44550;43.864;25.986;2024-01-30T14:03:43;103453.84;;;6.43;59.80
58245;BME280;44550;43.864;25.986;2024-01-30T14:07:43;103419.72;;;6.38;59.43
58245;BME280;44550;43.864;25.986;2024-01-30T14:11:44;103463.56;;;6.72;58.80
58245;BME280;44550;43.864;25.986;2024-01-30T14:15:58;103463.28;;;6.80;58.37
58245;BME280;44550;43.864;25.986;2024-01-30T14:20:01;103464.66;;;6.89;59.85
58245;BME280;44550;43.864;25.986;2024-01-30T14:24:03;103469.50;;;6.82;60.55
58245;BME280;44550;43.864;25.986;2024-01-30T14:28:04;103464.38;;;6.71;61.66
58245;BME280;44550;43.864;25.986;2024-01-30T14:32:05;103456.69;;;6.72;62.19
58245;BME280;44550;43.864;25.986;2024-01-30T14:36:09;103451.53;;;6.47;63.29
58245;BME280;44550;43.864;25.986;2024-01-30T14:40:10;103470.47;;;6.20;65.54
58245;BME280;44550;43.864;25.986;2024-01-30T14:44:10;103467.91;;;6.08;66.96
58245;BME280;44550;43.864;25.986;2024-01-30T14:48:14;103475.06;;;5.99;67.44
58245;BME280;44550;43.864;25.986;2024-01-30T14:52:17;103471.09;;;5.92;67.25
58245;BME280;44550;43.864;25.986;2024-01-30T14:56:18;103466.19;;;5.83;67.65
58245;BME280;44550;43.864;25.986;2024-01-30T15:00:20;103469.25;;;5.78;68.32
58245;BME280;44550;43.864;25.986;2024-01-30T15:04:23;103449.44;;;5.67;68.46
58245;BME280;44550;43.864;25.986;2024-01-30T15:08:26;103471.16;;;5.80;68.72
58245;BME280;44550;43.864;25.986;2024-01-30T15:12:26;103444.25;;;5.67;69.76
58245;BME280;44550;43.864;25.986;2024-01-30T15:16:30;103467.53;;;5.78;71.24
58245;BME280;44550;43.864;25.986;2024-01-30T15:20:36;103463.84;;;5.75;71.94
58245;BME280;44550;43.864;25.986;2024-01-30T15:24:44;103472.66;;;5.65;73.11
58245;BME280;44550;43.864;25.986;2024-01-30T15:28:45;103471.69;;;5.63;74.51
58245;BME280;44550;43.864;25.986;2024-01-30T15:32:48;103478.13;;;5.56;75.09
58245;BME280;44550;43.864;25.986;2024-01-30T15:36:50;103477.56;;;5.49;75.70
58245;BME280;44550;43.864;25.986;2024-01-30T15:40:59;103479.03;;;5.45;77.15
58245;BME280;44550;43.864;25.986;2024-01-30T15:45:00;103463.72;;;5.36;77.72
58245;BME280;44550;43.864;25.986;2024-01-30T15:49:04;103480.38;;;5.52;77.77
58245;BME280;44550;43.864;25.986;2024-01-30T15:53:11;103475.63;;;5.46;77.98
58245;BME280;44550;43.864;25.986;2024-01-30T15:57:21;103498.22;;;5.47;78.36
58245;BME280;44550;43.864;25.986;2024-01-30T16:01:27;103491.88;;;5.55;78.42
58245;BME280;44550;43.864;25.986;2024-01-30T16:05:31;103488.91;;;5.74;78.03
58245;BME280;44550;43.864;25.986;2024-01-30T16:09:34;103488.84;;;5.86;77.28
58245;BME280;44550;43.864;25.986;2024-01-30T16:13:37;103493.34;;;5.88;76.72
58245;BME280;44550;43.864;25.986;2024-01-30T16:17:46;103498.00;;;5.93;76.40
58245;BME280;44550;43.864;25.986;2024-01-30T16:21:52;103495.53;;;5.94;76.14
58245;BME280;44550;43.864;25.986;2024-01-30T16:26:06;103491.34;;;5.96;75.87
58245;BME280;44550;43.864;25.986;2024-01-30T16:30:09;103493.28;;;5.87;76.19
58245;BME280;44550;43.864;25.986;2024-01-30T16:34:12;103491.81;;;5.79;76.55
58245;BME280;44550;43.864;25.986;2024-01-30T16:38:14;103471.25;;;5.57;76.98
58245;BME280;44550;43.864;25.986;2024-01-30T16:42:14;103495.59;;;5.59;77.41
58245;BME280;44550;43.864;25.986;2024-01-30T16:46:19;103425.63;;;5.24;77.31
58245;BME280;44550;43.864;25.986;2024-01-30T16:50:21;103489.84;;;5.63;76.91
58245;BME280;44550;43.864;25.986;2024-01-30T16:54:22;103488.25;;;5.65;76.47
58245;BME280;44550;43.864;25.986;2024-01-30T16:58:26;103489.16;;;5.65;76.61
58245;BME280;44550;43.864;25.986;2024-01-30T17:02:29;103483.94;;;5.65;76.30
58245;BME280;44550;43.864;25.986;2024-01-30T17:06:32;103489.63;;;5.60;76.82
58245;BME280;44550;43.864;25.986;2024-01-30T17:10:33;103496.31;;;5.56;76.99
58245;BME280;44550;43.864;25.986;2024-01-30T17:14:34;103498.44;;;5.50;77.70
58245;BME280;44550;43.864;25.986;2024-01-30T17:18:51;103493.94;;;5.48;77.73
58245;BME280;44550;43.864;25.986;2024-01-30T17:22:51;103493.16;;;5.37;77.92
58245;BME280;44550;43.864;25.986;2024-01-30T17:26:52;103503.06;;;5.42;77.73
58245;BME280;44550;43.864;25.986;2024-01-30T17:30:53;103495.75;;;5.37;78.08
58245;BME280;44550;43.864;25.986;2024-01-30T17:34:57;103484.38;;;5.35;78.55
58245;BME280;44550;43.864;25.986;2024-01-30T17:38:58;103489.22;;;5.30;78.42
58245;BME280;44550;43.864;25.986;2024-01-30T17:43:02;103490.38;;;5.10;79.14
58245;BME280;44550;43.864;25.986;2024-01-30T17:47:03;103485.19;;;5.10;79.88
58245;BME280;44550;43.864;25.986;2024-01-30T17:51:06;103482.25;;;5.06;79.74
58245;BME280;44550;43.864;25.986;2024-01-30T17:55:07;103489.03;;;5.04;79.66
58245;BME280;44550;43.864;25.986;2024-01-30T17:59:14;103476.63;;;4.88;80.34
58245;BME280;44550;43.864;25.986;2024-01-30T18:03:18;103486.66;;;4.95;80.33
58245;BME280;44550;43.864;25.986;2024-01-30T18:07:24;103492.38;;;4.79;81.21
58245;BME280;44550;43.864;25.986;2024-01-30T18:11:27;103488.09;;;4.68;82.04
58245;BME280;44550;43.864;25.986;2024-01-30T18:15:31;103487.50;;;4.48;83.56
58245;BME280;44550;43.864;25.986;2024-01-30T18:19:37;103479.16;;;4.41;84.16
58245;BME280;44550;43.864;25.986;2024-01-30T18:23:39;103471.91;;;4.37;84.26
58245;BME280;44550;43.864;25.986;2024-01-30T18:27:41;103481.69;;;4.17;85.48
58245;BME280;44550;43.864;25.986;2024-01-30T18:31:44;103403.47;;;3.44;87.30
58245;BME280;44550;43.864;25.986;2024-01-30T18:35:46;103476.41;;;3.72;89.18
58245;BME280;44550;43.864;25.986;2024-01-30T18:39:54;103472.94;;;3.71;89.75
58245;BME280;44550;43.864;25.986;2024-01-30T18:43:55;103475.13;;;3.67;90.34
58245;BME280;44550;43.864;25.986;2024-01-30T18:47:56;103469.16;;;3.46;91.75
58245;BME280;44550;43.864;25.986;2024-01-30T18:51:57;103476.88;;;3.24;93.85
58245;BME280;44550;43.864;25.986;2024-01-30T18:56:11;103485.19;;;3.20;95.31
58245;BME280;44550;43.864;25.986;2024-01-30T19:00:25;103488.94;;;3.13;96.55
58245;BME280;44550;43.864;25.986;2024-01-30T19:04:32;103485.56;;;3.14;96.62
58245;BME280;44550;43.864;25.986;2024-01-30T19:08:59;103486.75;;;3.08;97.14
58245;BME280;44550;43.864;25.986;2024-01-30T19:13:03;103483.59;;;2.90;97.88
58245;BME280;44550;43.864;25.986;2024-01-30T19:17:06;103481.41;;;2.84;98.55
58245;BME280;44550;43.864;25.986;2024-01-30T19:21:07;103405.94;;;2.35;98.91
58245;BME280;44550;43.864;25.986;2024-01-30T19:25:09;103478.19;;;2.76;99.11
58245;BME280;44550;43.864;25.986;2024-01-30T19:29:16;103454.81;;;2.65;99.14
58245;BME280;44550;43.864;25.986;2024-01-30T19:33:18;103473.84;;;2.65;99.78
58245;BME280;44550;43.864;25.986;2024-01-30T19:37:21;103476.66;;;2.58;100.00
58245;BME280;44550;43.864;25.986;2024-01-30T19:41:23;103469.06;;;2.59;100.00
58245;BME280;44550;43.864;25.986;2024-01-30T19:45:31;103463.00;;;2.59;99.93
58245;BME280;44550;43.864;25.986;2024-01-30T19:49:33;103456.16;;;2.39;100.00
58245;BME280;44550;43.864;25.986;2024-01-30T19:53:36;103452.03;;;2.21;100.00
58245;BME280;44550;43.864;25.986;2024-01-30T19:57:42;103450.09;;;2.18;100.00
58245;BME280;44550;43.864;25.986;2024-01-30T20:01:48;103447.00;;;2.12;100.00
58245;BME280;44550;43.864;25.986;2024-01-30T20:05:49;103452.44;;;2.25;100.00
58245;BME280;44550;43.864;25.986;2024-01-30T20:09:51;103442.88;;;2.04;100.00
58245;BME280;44550;43.864;25.986;2024-01-30T20:13:52;103448.03;;;2.14;100.00
58245;BME280;44550;43.864;25.986;2024-01-30T20:17:57;103438.59;;;2.15;100.00
58245;BME280;44550;43.864;25.986;2024-01-30T20:22:01;103420.16;;;2.10;100.00
58245;BME280;44550;43.864;25.986;2024-01-30T20:26:03;103442.34;;;2.18;100.00
58245;BME280;44550;43.864;25.986;2024-01-30T20:30:05;103439.75;;;2.18;100.00
58245;BME280;44550;43.864;25.986;2024-01-30T20:34:11;103436.69;;;2.12;100.00
58245;BME280;44550;43.864;25.986;2024-01-30T20:38:11;103433.69;;;1.97;100.00
58245;BME280;44550;43.864;25.986;2024-01-30T20:42:14;103406.47;;;1.70;100.00
58245;BME280;44550;43.864;25.986;2024-01-30T20:46:14;103364.91;;;1.47;100.00
58245;BME280;44550;43.864;25.986;2024-01-30T20:50:29;103384.41;;;1.63;100.00
58245;BME280;44550;43.864;25.986;2024-01-30T20:54:39;103410.97;;;1.73;100.00
58245;BME280;44550;43.864;25.986;2024-01-30T20:58:51;103426.03;;;1.68;100.00
58245;BME280;44550;43.864;25.986;2024-01-30T21:03:23;103422.66;;;1.59;100.00
58245;BME280;44550;43.864;25.986;2024-01-30T21:07:33;103368.00;;;1.43;100.00